Time;durP1;ratioP1;P1;durP2;ratioP2;P2;SDS_P1;SDS_P2;PMS_P1;PMS_P2;Temp;Humidity;BMP_temperature;BMP_pressure;BME280_temperature;BME280_humidity;BME280_pressure;Samples;Min_cycle;Max_cycle;Signal;HPM_P1;HPM_P2
2021/11/08 00:00:07;;;;;;;21.20;19.70;;;8.60;90.80;;;;;;5085674;28;20680;-75
2021/11/08 00:02:36;;;;;;;20.95;19.30;;;8.70;90.70;;;;;;5086097;28;20230;-75
2021/11/08 00:05:04;;;;;;;21.90;20.30;;;8.70;90.30;;;;;;5080990;28;20294;-75
2021/11/08 00:07:30;;;;;;;22.15;20.65;;;8.70;90.20;;;;;;5087193;28;20795;-76
2021/11/08 00:09:57;;;;;;;21.05;19.67;;;8.80;89.60;;;;;;5087266;28;20239;-75
2021/11/08 00:12:24;;;;;;;20.73;19.00;;;8.80;89.20;;;;;;5087924;28;20229;-75
2021/11/08 00:14:55;;;;;;;21.75;19.80;;;8.80;90.20;;;;;;5103329;27;20206;-75
2021/11/08 00:17:34;;;;;;;20.83;19.15;;;8.90;89.40;;;;;;5092467;28;20223;-76
2021/11/08 00:20:07;;;;;;;21.10;19.70;;;8.80;88.60;;;;;;5090094;28;20575;-75
2021/11/08 00:22:36;;;;;;;22.10;20.30;;;8.80;88.50;;;;;;5093523;28;20852;-76
2021/11/08 00:25:03;;;;;;;22.05;20.23;;;8.80;88.00;;;;;;5090935;27;20953;-76
2021/11/08 00:27:30;;;;;;;22.10;20.00;;;8.80;88.10;;;;;;5093117;28;20646;-76
2021/11/08 00:29:57;;;;;;;23.50;21.52;;;8.70;88.70;;;;;;5092835;28;20728;-77
2021/11/08 00:32:25;;;;;;;23.27;21.10;;;8.70;88.30;;;;;;5092111;28;20302;-76
2021/11/08 00:34:52;;;;;;;22.58;20.65;;;8.80;88.10;;;;;;5088744;28;20209;-78
2021/11/08 00:37:21;;;;;;;21.05;19.52;;;8.70;88.00;;;;;;5092472;28;20242;-75
2021/11/08 00:39:47;;;;;;;20.83;19.52;;;8.60;88.10;;;;;;5095528;28;20200;-75
2021/11/08 00:42:14;;;;;;;21.40;19.83;;;8.60;87.90;;;;;;5093395;28;20302;-75
2021/11/08 00:44:41;;;;;;;21.80;20.10;;;8.40;88.50;;;;;;5094411;28;20543;-75
2021/11/08 00:47:08;;;;;;;21.75;20.35;;;8.40;88.80;;;;;;5094388;27;20209;-76
2021/11/08 00:49:37;;;;;;;21.50;19.73;;;8.30;88.80;;;;;;5092630;28;20218;-75
2021/11/08 00:52:07;;;;;;;22.73;20.85;;;8.20;89.00;;;;;;5092518;28;20223;-74
2021/11/08 00:54:35;;;;;;;20.80;19.48;;;8.20;90.00;;;;;;5088760;28;20294;-74
2021/11/08 00:57:06;;;;;;;23.10;20.85;;;8.10;90.00;;;;;;5093548;28;20699;-74
2021/11/08 00:59:33;;;;;;;22.55;20.60;;;8.10;90.00;;;;;;5093000;28;20218;-74
2021/11/08 01:02:00;;;;;;;22.58;20.42;;;8.10;90.00;;;;;;5096178;28;20416;-74
2021/11/08 01:04:27;;;;;;;21.38;19.83;;;8.00;90.00;;;;;;5094648;28;20201;-71
2021/11/08 01:06:59;;;;;;;22.60;20.50;;;8.00;90.00;;;;;;5095218;28;20287;-71
2021/11/08 01:09:27;;;;;;;21.42;19.73;;;7.90;90.60;;;;;;5101755;28;20195;-71
2021/11/08 01:11:56;;;;;;;21.30;19.65;;;7.90;90.60;;;;;;5093281;28;20218;-71
2021/11/08 01:14:23;;;;;;;21.38;19.70;;;7.90;90.70;;;;;;5093924;28;20199;-71
2021/11/08 01:16:55;;;;;;;21.25;19.65;;;7.90;90.80;;;;;;5094024;28;20858;-71
2021/11/08 01:19:23;;;;;;;21.40;19.58;;;7.90;91.50;;;;;;5092292;28;20294;-71
2021/11/08 01:21:52;;;;;;;22.92;21.13;;;7.80;91.80;;;;;;5094212;28;20199;-71
2021/11/08 01:24:20;;;;;;;22.00;20.20;;;7.70;92.10;;;;;;5091290;28;20199;-71
2021/11/08 01:26:48;;;;;;;22.50;20.60;;;7.60;92.10;;;;;;5097897;28;20206;-72
2021/11/08 01:29:17;;;;;;;22.45;20.27;;;7.50;92.80;;;;;;5091177;28;20187;-73
2021/11/08 01:31:44;;;;;;;22.25;20.75;;;7.50;95.30;;;;;;5090961;28;20557;-73
2021/11/08 01:34:11;;;;;;;22.83;21.13;;;7.50;94.50;;;;;;5081094;28;20257;-71
2021/11/08 01:36:41;;;;;;;21.30;20.00;;;7.40;94.20;;;;;;5090677;28;20343;-71
2021/11/08 01:39:15;;;;;;;22.38;20.58;;;7.30;94.00;;;;;;5092184;28;20373;-73
2021/11/08 01:41:43;;;;;;;22.40;20.80;;;7.30;94.10;;;;;;5089883;28;20203;-74
2021/11/08 01:44:14;;;;;;;24.08;21.77;;;7.30;94.00;;;;;;5087987;28;20290;-73
2021/11/08 01:46:42;;;;;;;21.42;19.88;;;7.20;94.10;;;;;;5089150;28;20191;-73
2021/11/08 01:49:10;;;;;;;22.08;20.35;;;7.10;94.30;;;;;;5096457;28;20616;-72
2021/11/08 01:51:37;;;;;;;22.02;20.25;;;6.90;94.40;;;;;;5086850;28;20200;-75
2021/11/08 01:54:05;;;;;;;60.67;24.58;;;6.90;94.40;;;;;;5086997;28;20202;-77
2021/11/08 01:56:32;;;;;;;22.63;21.10;;;6.90;95.40;;;;;;5089208;28;20199;-77
2021/11/08 01:59:00;;;;;;;23.77;21.73;;;6.80;95.60;;;;;;5087002;28;20215;-73
2021/11/08 02:01:27;;;;;;;22.90;21.08;;;6.80;95.70;;;;;;5087853;28;20199;-74
2021/11/08 02:03:56;;;;;;;23.95;21.85;;;6.70;95.40;;;;;;5085841;28;20302;-74
2021/11/08 02:06:23;;;;;;;23.92;22.15;;;6.70;95.20;;;;;;5088618;28;20203;-74
2021/11/08 02:08:49;;;;;;;21.77;20.23;;;6.60;95.30;;;;;;5086328;28;20191;-74
2021/11/08 02:11:16;;;;;;;23.08;21.08;;;6.60;95.40;;;;;;5088431;28;20573;-73
2021/11/08 02:13:44;;;;;;;22.27;20.65;;;6.60;95.20;;;;;;5082521;27;20223;-73
2021/11/08 02:16:13;;;;;;;22.80;21.15;;;6.50;95.40;;;;;;5080368;28;20201;-74
2021/11/08 02:18:40;;;;;;;24.25;21.75;;;6.50;96.20;;;;;;5081265;28;20225;-74
2021/11/08 02:21:10;;;;;;;22.35;20.85;;;6.40;96.20;;;;;;5085815;28;20562;-73
2021/11/08 02:23:38;;;;;;;21.77;20.17;;;6.40;96.20;;;;;;5085867;28;20857;-75
2021/11/08 02:26:08;;;;;;;23.70;21.75;;;6.40;95.70;;;;;;5087825;28;20202;-75
2021/11/08 02:28:35;;;;;;;22.20;20.23;;;6.30;96.00;;;;;;5083793;28;20202;-75
2021/11/08 02:31:02;;;;;;;22.60;20.75;;;6.20;97.30;;;;;;5080651;28;20195;-75
2021/11/08 02:33:29;;;;;;;23.40;21.73;;;6.20;97.80;;;;;;5082135;28;20214;-76
2021/11/08 02:35:56;;;;;;;22.08;20.48;;;6.30;96.60;;;;;;5088336;28;20195;-76
2021/11/08 02:38:26;;;;;;;22.17;20.38;;;6.20;96.60;;;;;;5086511;28;20223;-76
2021/11/08 02:40:54;;;;;;;23.52;21.02;;;6.10;96.50;;;;;;5081865;28;20213;-75
2021/11/08 02:43:23;;;;;;;22.27;20.58;;;6.10;96.60;;;;;;5083061;28;20318;-77
2021/11/08 02:45:56;;;;;;;22.65;20.85;;;6.00;96.70;;;;;;5084778;27;20621;-75
2021/11/08 02:48:24;;;;;;;829.75;119.25;;;5.90;96.70;;;;;;5085267;28;20188;-75
2021/11/08 02:50:56;;;;;;;24.67;21.60;;;5.90;97.90;;;;;;5087012;28;20217;-75
2021/11/08 02:53:26;;;;;;;21.67;20.08;;;5.90;97.90;;;;;;5087346;28;20296;-75
2021/11/08 02:55:54;;;;;;;21.38;19.67;;;5.90;99.20;;;;;;5085098;28;20293;-75
2021/11/08 02:58:23;;;;;;;21.60;19.90;;;5.90;98.10;;;;;;5086686;28;20306;-77
2021/11/08 03:00:53;;;;;;;22.33;20.33;;;5.80;97.40;;;;;;5087370;28;20218;-75
2021/11/08 03:03:22;;;;;;;22.08;20.33;;;5.70;97.30;;;;;;5085794;28;20220;-75
2021/11/08 03:05:49;;;;;;;21.40;19.85;;;5.70;97.30;;;;;;5084049;28;20673;-75
2021/11/08 03:08:16;;;;;;;724.38;100.35;;;5.60;97.10;;;;;;5087019;28;20240;-76
2021/11/08 03:10:46;;;;;;;23.15;21.25;;;5.60;99.10;;;;;;5084969;28;20313;-76
2021/11/08 03:13:18;;;;;;;23.35;21.20;;;5.60;99.20;;;;;;5085417;28;20222;-75
2021/11/08 03:15:52;;;;;;;101.35;27.15;;;5.60;99.60;;;;;;5089930;27;20202;-74
2021/11/08 03:18:29;;;;;;;21.30;19.40;;;5.60;99.60;;;;;;5086509;28;20218;-73
2021/11/08 03:20:58;;;;;;;22.13;20.25;;;5.60;99.90;;;;;;5083132;28;20191;-73
2021/11/08 03:23:26;;;;;;;21.63;19.73;;;5.50;99.70;;;;;;5086756;28;20215;-73
2021/11/08 03:26:07;;;;;;;26.67;24.50;;;5.50;99.10;;;;;;5086280;28;20285;-73
2021/11/08 03:28:36;;;;;;;22.95;21.05;;;5.50;98.70;;;;;;5078865;28;20613;-73
2021/11/08 03:31:05;;;;;;;21.52;19.95;;;5.50;98.30;;;;;;5085664;28;20209;-74
2021/11/08 03:33:32;;;;;;;1999.90;601.58;;;5.40;98.20;;;;;;5085367;28;20211;-73
2021/11/08 03:36:00;;;;;;;22.98;20.92;;;5.40;99.90;;;;;;5085258;28;20603;-73
2021/11/08 03:38:27;;;;;;;23.80;21.67;;;5.40;99.90;;;;;;5089283;28;20233;-74
2021/11/08 03:40:55;;;;;;;25.27;22.88;;;5.40;99.90;;;;;;5081711;28;20203;-73
2021/11/08 03:43:22;;;;;;;23.52;21.63;;;5.30;98.80;;;;;;5085697;28;20219;-72
2021/11/08 03:45:51;;;;;;;23.67;21.60;;;5.40;98.20;;;;;;5086965;28;20206;-73
2021/11/08 03:48:20;;;;;;;23.27;21.05;;;5.40;97.30;;;;;;5086525;28;20260;-72
2021/11/08 03:50:48;;;;;;;25.48;23.38;;;5.30;96.70;;;;;;5083792;28;20245;-72
2021/11/08 03:53:15;;;;;;;23.23;21.45;;;5.30;96.30;;;;;;5086597;28;20214;-72
2021/11/08 03:55:43;;;;;;;32.05;24.73;;;5.20;95.70;;;;;;5086074;28;20230;-73
2021/11/08 03:58:12;;;;;;;25.27;23.20;;;5.10;95.60;;;;;;5086294;28;20221;-72
2021/11/08 04:00:40;;;;;;;23.35;21.15;;;5.00;95.90;;;;;;5082303;28;20212;-72
2021/11/08 04:03:08;;;;;;;23.45;21.70;;;4.90;96.00;;;;;;5086618;28;20215;-72
2021/11/08 04:05:38;;;;;;;23.80;21.52;;;4.90;96.00;;;;;;5084016;28;20203;-73
2021/11/08 04:08:08;;;;;;;23.92;22.02;;;4.80;96.40;;;;;;5086042;28;20198;-72
2021/11/08 04:10:36;;;;;;;24.15;22.15;;;4.70;96.70;;;;;;5085290;28;20198;-72
2021/11/08 04:13:04;;;;;;;100.22;31.52;;;4.70;97.20;;;;;;5086229;28;20703;-72
2021/11/08 04:15:37;;;;;;;1999.90;787.10;;;4.70;98.30;;;;;;5086545;28;20581;-73
2021/11/08 04:18:07;;;;;;;1999.90;302.27;;;4.70;99.70;;;;;;5086541;28;20195;-72
2021/11/08 04:20:35;;;;;;;24.30;22.58;;;4.70;99.90;;;;;;5085733;28;20219;-72
2021/11/08 04:23:03;;;;;;;25.90;23.40;;;4.70;99.60;;;;;;5086520;28;20223;-72
2021/11/08 04:25:30;;;;;;;24.33;22.27;;;4.70;99.20;;;;;;5086049;28;20206;-73
2021/11/08 04:27:58;;;;;;;27.40;25.20;;;4.70;98.80;;;;;;5085985;28;20645;-72
2021/11/08 04:30:27;;;;;;;24.45;22.55;;;4.80;98.10;;;;;;5084883;28;20910;-72
2021/11/08 04:33:16;;;;;;;27.00;24.63;;;4.80;97.00;;;;;;5085413;28;20215;-72
2021/11/08 04:35:48;;;;;;;85.18;26.35;;;4.70;96.60;;;;;;5084862;28;20301;-73
2021/11/08 04:38:31;;;;;;;376.67;61.15;;;4.60;98.80;;;;;;5083701;28;20198;-73
2021/11/08 04:43:52;;;;;;;26.20;24.02;;;4.70;99.90;;;;;;5081916;28;20276;-74
2021/11/08 04:49:25;;;;;;;24.73;22.63;;;4.70;99.70;;;;;;5079945;28;20197;-75
2021/11/08 04:52:00;;;;;;;1999.90;340.02;;;4.60;99.30;;;;;;5084990;28;20199;-75
2021/11/08 04:54:35;;;;;;;27.67;25.08;;;4.60;99.90;;;;;;5082268;28;20260;-73
2021/11/08 05:22:10;;;;;;;338.67;55.25;;;4.40;97.40;;;;;;5087419;28;20348;-71
2021/11/08 05:30:08;;;;;;;24.30;22.25;;;4.30;98.90;;;;;;5078676;28;20199;-72
2021/11/08 05:32:37;;;;;;;22.40;20.60;;;4.30;97.90;;;;;;5092441;28;20211;-72
2021/11/08 05:35:05;;;;;;;24.23;22.25;;;4.30;97.30;;;;;;5087233;28;20197;-72
2021/11/08 05:37:34;;;;;;;25.13;23.27;;;4.30;97.10;;;;;;5088561;28;20198;-72
2021/11/08 05:40:07;;;;;;;25.55;23.60;;;4.30;96.60;;;;;;5089011;28;20250;-72
2021/11/08 05:42:35;;;;;;;26.38;24.02;;;4.20;96.10;;;;;;5089341;28;20247;-73
2021/11/08 05:45:03;;;;;;;25.90;23.95;;;4.10;97.00;;;;;;5084337;28;20611;-74
2021/11/08 05:47:30;;;;;;;1976.00;334.02;;;4.10;96.80;;;;;;5089616;28;20200;-74
2021/11/08 05:49:57;;;;;;;24.17;22.20;;;4.10;98.30;;;;;;5089581;28;20290;-74
2021/11/08 05:52:24;;;;;;;24.70;22.80;;;4.10;99.90;;;;;;5088752;28;20306;-74
2021/11/08 05:54:53;;;;;;;24.90;22.75;;;4.10;98.80;;;;;;5084926;28;20287;-76
2021/11/08 05:57:41;;;;;;;26.65;24.65;;;4.10;98.40;;;;;;5087653;28;21017;-75
2021/11/08 06:50:07;;;;;;;25.77;23.77;;;4.00;96.10;;;;;;5082287;28;21007;-73
2021/11/08 06:52:40;;;;;;;26.75;23.67;;;4.00;97.10;;;;;;5082625;28;20219;-74
2021/11/08 06:55:09;;;;;;;31.17;26.98;;;4.10;96.50;;;;;;5088463;28;20207;-73
2021/11/08 06:57:44;;;;;;;29.50;24.63;;;4.20;95.80;;;;;;5089502;28;20239;-74
2021/11/08 07:00:15;;;;;;;27.25;24.50;;;4.20;95.20;;;;;;5087891;28;20295;-73
2021/11/08 07:02:43;;;;;;;27.75;24.05;;;4.10;95.50;;;;;;5088805;27;20390;-74
2021/11/08 07:05:10;;;;;;;23.77;21.52;;;4.20;95.50;;;;;;5088931;28;20285;-76
2021/11/08 07:07:38;;;;;;;26.70;23.88;;;4.20;94.80;;;;;;5090089;28;20665;-73
2021/11/08 07:10:06;;;;;;;25.98;23.67;;;4.30;94.70;;;;;;5088500;28;20227;-72
2021/11/08 07:12:34;;;;;;;1556.18;196.70;;;4.30;94.30;;;;;;5088873;28;20298;-73
2021/11/08 07:15:01;;;;;;;25.38;23.58;;;4.30;95.80;;;;;;5087840;28;20207;-73
2021/11/08 07:17:30;;;;;;;24.95;22.92;;;4.40;97.30;;;;;;5085080;27;20542;-73
2021/11/08 07:20:00;;;;;;;24.40;22.17;;;4.50;96.10;;;;;;5082020;28;20251;-73
2021/11/08 07:22:27;;;;;;;25.30;23.02;;;4.50;94.50;;;;;;5095225;28;20777;-74
2021/11/08 07:24:54;;;;;;;24.02;22.23;;;4.50;93.80;;;;;;5086322;28;20195;-74
2021/11/08 07:27:21;;;;;;;25.13;22.70;;;4.30;93.40;;;;;;5082441;28;20217;-74
2021/11/08 07:29:48;;;;;;;24.40;22.50;;;4.40;94.00;;;;;;5086856;28;20198;-74
2021/11/08 07:32:15;;;;;;;24.90;23.10;;;4.50;93.40;;;;;;5087592;28;20306;-74
2021/11/08 07:34:44;;;;;;;25.73;23.63;;;4.70;93.10;;;;;;5081519;28;20314;-73
2021/11/08 07:37:11;;;;;;;26.00;23.38;;;4.60;92.50;;;;;;5082489;28;20210;-74
2021/11/08 07:39:41;;;;;;;27.02;24.92;;;4.60;93.30;;;;;;5087382;28;20781;-74
2021/11/08 07:42:09;;;;;;;24.35;22.45;;;4.60;95.40;;;;;;5088504;28;20223;-74
2021/11/08 07:44:36;;;;;;;26.77;24.58;;;4.80;95.10;;;;;;5086790;28;20552;-74
2021/11/08 07:47:05;;;;;;;28.13;25.95;;;4.80;94.90;;;;;;5088698;28;20231;-74
2021/11/08 07:49:32;;;;;;;24.55;22.77;;;4.90;94.40;;;;;;5087640;28;20194;-74
2021/11/08 07:52:02;;;;;;;26.73;24.23;;;5.00;94.20;;;;;;5085372;28;20215;-72
2021/11/08 07:54:30;;;;;;;25.60;23.60;;;5.10;93.80;;;;;;5085529;28;20607;-72
2021/11/08 07:56:57;;;;;;;25.00;22.83;;;5.10;93.80;;;;;;5085593;28;20196;-72
2021/11/08 07:59:24;;;;;;;24.15;22.50;;;5.20;93.70;;;;;;5161269;22;20251;-71
2021/11/08 08:01:52;;;;;;;275.52;43.28;;;5.30;93.70;;;;;;5047503;28;20204;-71
2021/11/08 08:04:19;;;;;;;989.17;147.80;;;5.40;94.50;;;;;;5056418;28;20192;-71
2021/11/08 08:06:48;;;;;;;25.15;22.88;;;5.50;96.30;;;;;;5036413;28;20203;-71
2021/11/08 08:09:17;;;;;;;24.13;22.20;;;5.60;95.40;;;;;;5051040;28;20220;-71
2021/11/08 08:11:45;;;;;;;27.67;25.05;;;5.70;94.70;;;;;;5046811;28;20208;-71
2021/11/08 08:14:12;;;;;;;25.65;23.38;;;5.80;94.30;;;;;;5054152;28;20203;-71
2021/11/08 08:16:39;;;;;;;28.45;25.75;;;5.90;93.90;;;;;;5047146;28;20201;-71
2021/11/08 08:19:06;;;;;;;25.48;23.48;;;6.00;93.20;;;;;;5046183;28;20295;-72
2021/11/08 08:21:33;;;;;;;25.02;23.00;;;6.00;93.10;;;;;;5047457;28;20567;-71
2021/11/08 08:24:03;;;;;;;26.70;24.10;;;6.20;93.10;;;;;;5046625;28;20217;-71
2021/11/08 08:26:33;;;;;;;26.85;24.48;;;6.20;92.90;;;;;;5040603;28;20196;-71
2021/11/08 08:29:03;;;;;;;27.20;24.40;;;6.30;92.80;;;;;;5044325;28;20205;-71
2021/11/08 08:31:30;;;;;;;26.48;24.15;;;6.50;92.60;;;;;;5034162;28;20557;-72
2021/11/08 08:33:57;;;;;;;26.33;23.98;;;6.60;92.20;;;;;;5045793;28;20235;-71
2021/11/08 08:36:25;;;;;;;26.52;23.98;;;6.70;92.10;;;;;;5054585;28;20204;-71
2021/11/08 08:38:52;;;;;;;26.52;24.38;;;6.80;91.70;;;;;;5047490;28;20298;-71
2021/11/08 08:41:19;;;;;;;35.28;25.05;;;6.90;91.40;;;;;;5044050;28;20232;-71
2021/11/08 08:43:49;;;;;;;24.65;22.63;;;6.90;91.40;;;;;;5049883;28;20212;-72
2021/11/08 08:46:16;;;;;;;27.58;25.60;;;7.00;91.00;;;;;;5056783;28;20251;-71
2021/11/08 08:48:44;;;;;;;27.88;25.48;;;7.10;91.00;;;;;;5050968;28;20279;-72
2021/11/08 08:51:11;;;;;;;27.25;24.85;;;7.30;90.70;;;;;;5043322;28;20193;-71
2021/11/08 08:53:39;;;;;;;27.70;25.33;;;7.40;90.50;;;;;;5051326;28;20580;-71
2021/11/08 08:56:06;;;;;;;40.83;27.52;;;7.40;90.30;;;;;;5049229;28;20196;-71
2021/11/08 08:58:33;;;;;;;30.40;25.45;;;7.50;90.00;;;;;;5039515;28;20287;-71
2021/11/08 09:01:02;;;;;;;27.40;25.00;;;7.70;89.90;;;;;;5047074;28;20472;-71
2021/11/08 09:03:29;;;;;;;26.33;23.77;;;7.80;89.50;;;;;;5050875;28;20248;-71
2021/11/08 09:05:56;;;;;;;27.65;25.23;;;7.90;89.20;;;;;;5049291;28;20201;-71
2021/11/08 09:08:23;;;;;;;26.67;24.80;;;8.00;88.90;;;;;;5048969;28;20251;-72
2021/11/08 09:10:50;;;;;;;29.15;26.60;;;8.20;88.50;;;;;;5049371;28;20615;-71
2021/11/08 09:13:20;;;;;;;27.20;24.90;;;8.20;88.10;;;;;;5049592;28;20210;-71
2021/11/08 09:15:48;;;;;;;27.95;25.70;;;8.30;87.90;;;;;;5036845;28;20577;-72
2021/11/08 09:18:16;;;;;;;27.65;25.30;;;8.30;87.90;;;;;;5050800;28;20228;-71
2021/11/08 09:20:45;;;;;;;27.05;24.50;;;8.40;87.90;;;;;;5036680;28;20228;-71
2021/11/08 09:23:14;;;;;;;27.95;25.80;;;8.50;87.40;;;;;;5050128;28;20244;-72
2021/11/08 09:25:41;;;;;;;30.38;27.73;;;8.60;87.00;;;;;;5048247;28;20250;-71
2021/11/08 09:28:08;;;;;;;31.73;29.17;;;8.70;86.30;;;;;;5049917;28;20196;-74
2021/11/08 09:30:38;;;;;;;29.27;26.77;;;8.90;86.10;;;;;;5048431;28;20192;-73
2021/11/08 09:33:06;;;;;;;28.02;25.58;;;9.10;85.10;;;;;;5050623;28;20231;-73
2021/11/08 09:35:37;;;;;;;27.35;24.88;;;9.30;84.50;;;;;;5062223;28;20596;-73
2021/11/08 09:38:06;;;;;;;27.92;25.42;;;9.40;83.70;;;;;;5037273;28;20197;-74
2021/11/08 09:40:35;;;;;;;29.30;26.37;;;9.60;83.20;;;;;;5045587;28;20215;-73
2021/11/08 09:43:04;;;;;;;26.57;24.17;;;9.80;82.70;;;;;;5046283;28;20487;-74
2021/11/08 09:45:31;;;;;;;28.97;26.63;;;9.90;81.90;;;;;;5045801;28;20521;-73
2021/11/08 09:47:59;;;;;;;30.70;28.07;;;9.90;80.90;;;;;;5052264;28;20454;-73
2021/11/08 09:50:31;;;;;;;32.90;29.60;;;10.00;80.80;;;;;;5052202;28;20447;-74
2021/11/08 09:53:01;;;;;;;30.87;27.87;;;10.10;79.60;;;;;;5051037;28;20881;-75
2021/11/08 09:55:28;;;;;;;32.47;29.60;;;10.30;79.20;;;;;;5044921;28;20548;-72
2021/11/08 09:57:56;;;;;;;28.87;26.77;;;10.40;78.40;;;;;;5052202;28;21145;-72
2021/11/08 10:00:27;;;;;;;31.90;29.10;;;10.40;78.50;;;;;;5048685;28;20558;-73
2021/11/08 10:02:56;;;;;;;35.20;30.73;;;10.40;78.70;;;;;;5047368;28;20540;-73
2021/11/08 10:05:25;;;;;;;32.43;29.70;;;10.30;78.80;;;;;;5049048;28;20579;-73
2021/11/08 10:07:56;;;;;;;29.50;27.40;;;10.20;78.90;;;;;;5049606;28;20825;-73
2021/11/08 10:10:25;;;;;;;30.90;28.27;;;10.40;78.90;;;;;;5050767;28;20451;-73
2021/11/08 10:12:55;;;;;;;31.17;28.70;;;10.30;78.80;;;;;;5049814;28;20493;-72
2021/11/08 10:15:23;;;;;;;31.43;29.23;;;10.40;79.10;;;;;;5049803;28;20505;-74
2021/11/08 10:17:50;;;;;;;32.07;29.57;;;10.50;79.00;;;;;;5049364;28;20466;-73
2021/11/08 10:20:30;;;;;;;31.53;29.23;;;10.60;77.60;;;;;;5049420;28;20479;-72
2021/11/08 10:22:58;;;;;;;29.50;27.10;;;10.70;76.80;;;;;;5047277;28;20483;-73
2021/11/08 10:25:28;;;;;;;30.23;27.40;;;10.80;75.40;;;;;;5038133;28;20479;-73
2021/11/08 10:27:56;;;;;;;31.87;28.97;;;10.50;75.80;;;;;;5049869;28;20455;-73
2021/11/08 10:30:26;;;;;;;30.93;28.50;;;10.30;76.70;;;;;;5049211;28;20605;-73
2021/11/08 10:33:13;;;;;;;31.73;29.30;;;10.30;77.20;;;;;;5039039;28;20964;-73
2021/11/08 10:35:43;;;;;;;29.90;27.63;;;10.10;78.60;;;;;;5033808;28;20463;-73
2021/11/08 10:38:14;;;;;;;30.40;27.97;;;10.00;79.20;;;;;;5036365;28;20490;-73
2021/11/08 10:40:52;;;;;;;32.63;28.60;;;10.00;79.40;;;;;;5047443;28;20920;-73
2021/11/08 10:43:28;;;;;;;31.73;29.13;;;10.00;79.40;;;;;;5048975;28;20481;-74
2021/11/08 10:45:58;;;;;;;30.90;28.10;;;9.90;78.70;;;;;;5040705;28;20876;-74
2021/11/08 10:48:29;;;;;;;28.97;26.40;;;9.90;79.50;;;;;;5047242;28;20459;-74
2021/11/08 10:51:00;;;;;;;31.07;28.73;;;9.80;79.50;;;;;;5047347;28;21010;-73
2021/11/08 10:53:30;;;;;;;30.23;27.53;;;9.80;79.30;;;;;;5047964;28;20475;-76
2021/11/08 10:56:07;;;;;;;31.00;28.70;;;9.90;79.30;;;;;;5048775;28;21019;-74
2021/11/08 10:58:35;;;;;;;29.40;26.70;;;9.80;79.40;;;;;;5048579;28;20451;-75
2021/11/08 11:01:03;;;;;;;30.00;27.67;;;9.70;79.80;;;;;;5047942;28;20490;-73
2021/11/08 11:03:32;;;;;;;29.60;27.23;;;9.90;78.90;;;;;;5048284;28;20489;-72
2021/11/08 11:06:02;;;;;;;32.67;29.90;;;10.00;77.10;;;;;;5045490;28;20491;-72
2021/11/08 11:08:31;;;;;;;30.35;27.75;;;10.20;76.40;;;;;;5047695;28;21033;-72
2021/11/08 11:11:02;;;;;;;31.17;28.33;;;10.50;75.40;;;;;;5047969;28;20197;-72
2021/11/08 11:13:31;;;;;;;31.93;29.20;;;10.50;74.90;;;;;;5048143;28;20963;-72
2021/11/08 11:16:02;;;;;;;32.10;29.38;;;10.50;74.40;;;;;;5047817;28;20464;-71
2021/11/08 11:18:32;;;;;;;31.20;29.03;;;10.60;74.20;;;;;;5049533;28;20304;-71
2021/11/08 11:21:12;;;;;;;30.13;28.10;;;10.40;73.90;;;;;;5044086;28;20542;-72
2021/11/08 11:23:45;;;;;;;30.50;28.20;;;10.40;74.10;;;;;;5047197;28;20558;-71
2021/11/08 11:26:14;;;;;;;30.20;27.83;;;10.50;74.50;;;;;;5047857;28;20487;-72
2021/11/08 11:28:43;;;;;;;30.97;28.40;;;10.70;74.50;;;;;;5048403;28;20836;-74
2021/11/08 11:31:12;;;;;;;29.23;26.73;;;10.80;74.00;;;;;;5034145;28;20879;-71
2021/11/08 11:33:40;;;;;;;31.73;28.73;;;10.90;73.90;;;;;;5047715;28;20483;-71
2021/11/08 11:36:09;;;;;;;30.67;27.80;;;11.00;73.70;;;;;;5045862;28;20459;-71
2021/11/08 11:38:41;;;;;;;30.23;27.60;;;10.70;74.90;;;;;;5035470;28;20451;-75
2021/11/08 11:41:12;;;;;;;30.03;27.50;;;10.60;74.50;;;;;;5046810;28;20487;-72
2021/11/08 11:43:42;;;;;;;31.60;28.70;;;10.50;75.30;;;;;;5048210;28;20479;-72
2021/11/08 11:46:14;;;;;;;30.40;27.83;;;10.40;75.60;;;;;;5046850;28;20636;-73
2021/11/08 11:48:41;;;;;;;29.57;27.30;;;10.40;76.60;;;;;;5054468;28;20459;-72
2021/11/08 11:51:20;;;;;;;31.10;28.53;;;10.70;75.40;;;;;;5046725;28;20455;-72
2021/11/08 11:53:47;;;;;;;28.20;25.90;;;10.80;74.90;;;;;;5046154;28;20489;-71
2021/11/08 11:56:16;;;;;;;30.97;28.10;;;10.80;75.80;;;;;;5049426;28;20462;-71
2021/11/08 11:58:46;;;;;;;30.37;28.00;;;10.80;74.60;;;;;;5049441;28;20451;-72
2021/11/08 12:01:16;;;;;;;29.00;26.70;;;10.80;73.60;;;;;;5048357;28;20471;-71
2021/11/08 12:03:44;;;;;;;29.63;26.93;;;10.80;73.80;;;;;;5047910;28;20486;-71
2021/11/08 12:06:14;;;;;;;29.37;26.73;;;10.80;73.50;;;;;;5045799;28;20455;-73
2021/11/08 12:08:44;;;;;;;30.40;27.37;;;10.90;73.50;;;;;;5051340;28;20902;-74
2021/11/08 12:11:12;;;;;;;29.73;27.03;;;10.80;74.80;;;;;;5048451;28;20483;-72
2021/11/08 12:13:42;;;;;;;28.90;26.70;;;10.70;76.50;;;;;;5047415;28;20494;-73
2021/11/08 12:16:15;;;;;;;29.00;26.73;;;10.80;74.40;;;;;;5046323;28;20459;-73
2021/11/08 12:18:45;;;;;;;30.03;27.30;;;10.90;73.80;;;;;;5049467;28;20554;-72
2021/11/08 12:21:22;;;;;;;28.63;26.30;;;11.20;73.20;;;;;;5046354;28;20533;-72
2021/11/08 12:23:49;;;;;;;29.10;26.50;;;11.30;72.00;;;;;;5049619;28;20479;-73
2021/11/08 12:26:21;;;;;;;29.57;27.50;;;11.30;71.60;;;;;;5047725;28;20463;-72
2021/11/08 12:28:50;;;;;;;32.13;29.60;;;11.30;72.90;;;;;;5047561;28;20473;-73
2021/11/08 12:31:28;;;;;;;28.90;26.13;;;11.20;77.90;;;;;;5046424;28;21222;-72
2021/11/08 12:34:03;;;;;;;27.03;24.93;;;11.20;72.90;;;;;;5047426;28;20584;-73
2021/11/08 12:36:31;;;;;;;29.63;27.43;;;11.20;71.80;;;;;;5047216;28;20447;-71
2021/11/08 12:39:00;;;;;;;27.50;25.60;;;11.20;71.50;;;;;;5039808;28;20450;-72
2021/11/08 12:41:44;;;;;;;29.77;27.03;;;11.20;70.80;;;;;;5043924;28;20562;-72
2021/11/08 12:47:49;;;;;;;28.80;26.13;;;11.10;72.50;;;;;;5037967;28;20478;-72
2021/11/08 12:50:17;;;;;;;27.20;24.90;;;11.00;73.00;;;;;;5039479;28;20443;-71
2021/11/08 12:52:47;;;;;;;29.50;27.47;;;10.90;73.00;;;;;;5047946;28;20467;-73
2021/11/08 12:55:21;;;;;;;27.47;24.97;;;11.10;72.00;;;;;;5047238;28;20466;-72
2021/11/08 12:57:59;;;;;;;28.43;26.50;;;11.40;70.90;;;;;;5047791;28;20470;-72
2021/11/08 13:00:30;;;;;;;28.90;25.93;;;11.50;70.90;;;;;;5043588;28;20550;-73
2021/11/08 13:03:08;;;;;;;29.43;27.10;;;11.50;72.60;;;;;;5047704;28;20521;-72
2021/11/08 13:05:42;;;;;;;30.00;27.73;;;11.60;74.70;;;;;;5050571;28;20481;-73
2021/11/08 13:08:20;;;;;;;28.20;25.90;;;11.70;77.10;;;;;;5044408;28;20597;-72
2021/11/08 13:10:58;;;;;;;28.33;25.57;;;11.80;74.30;;;;;;5046176;28;20463;-74
2021/11/08 13:13:33;;;;;;;29.43;26.57;;;11.80;72.30;;;;;;5044633;28;20547;-72
2021/11/08 13:16:07;;;;;;;28.43;26.07;;;11.90;70.20;;;;;;5044243;28;20504;-72
2021/11/08 13:18:39;;;;;;;26.87;24.77;;;12.00;67.30;;;;;;5047414;28;20458;-72
2021/11/08 13:21:06;;;;;;;30.27;27.80;;;11.80;67.70;;;;;;5040617;28;20454;-72
2021/11/08 13:23:36;;;;;;;31.27;28.40;;;11.80;69.20;;;;;;5044974;28;20482;-72
2021/11/08 13:26:04;;;;;;;31.40;28.57;;;12.00;67.90;;;;;;5044744;28;20462;-73
2021/11/08 13:28:34;;;;;;;35.47;32.43;;;12.10;67.80;;;;;;5047674;28;20466;-74
2021/11/08 13:31:04;;;;;;;31.33;28.33;;;12.10;68.60;;;;;;5052490;28;20592;-74
2021/11/08 13:33:34;;;;;;;27.60;25.40;;;12.20;68.80;;;;;;5142091;22;20460;-79
2021/11/08 13:36:03;;;;;;;27.20;25.17;;;12.30;66.60;;;;;;5029391;28;20478;-78
2021/11/08 13:38:33;;;;;;;27.10;25.07;;;12.50;65.80;;;;;;5028464;28;20472;-77
2021/11/08 13:41:05;;;;;;;28.47;25.90;;;12.70;69.30;;;;;;5028310;28;20975;-76
2021/11/08 13:43:39;;;;;;;26.57;24.50;;;12.80;66.10;;;;;;5049512;28;20558;-74
2021/11/08 13:46:08;;;;;;;28.03;25.93;;;12.80;63.70;;;;;;5042829;28;20513;-75
2021/11/08 13:48:37;;;;;;;26.97;24.87;;;12.60;62.90;;;;;;5058472;28;20479;-74
2021/11/08 13:51:08;;;;;;;27.93;25.60;;;12.40;62.90;;;;;;5056511;28;20469;-75
2021/11/08 13:53:37;;;;;;;28.37;26.40;;;12.10;63.50;;;;;;5052982;28;20565;-75
2021/11/08 13:56:06;;;;;;;28.17;26.07;;;12.00;65.10;;;;;;5053061;28;20996;-75
2021/11/08 13:58:34;;;;;;;27.67;25.30;;;11.90;67.10;;;;;;5054004;28;20541;-75
2021/11/08 14:01:04;;;;;;;28.43;26.03;;;11.80;67.30;;;;;;5055006;28;20542;-74
2021/11/08 14:03:37;;;;;;;29.93;27.30;;;11.70;68.90;;;;;;5050856;28;20562;-72
2021/11/08 14:06:07;;;;;;;28.40;26.17;;;11.50;70.50;;;;;;5048456;28;20534;-73
2021/11/08 14:08:37;;;;;;;29.80;27.20;;;11.40;70.80;;;;;;5050303;28;21185;-72
2021/11/08 14:11:04;;;;;;;31.33;28.07;;;11.30;71.30;;;;;;5042950;28;20477;-73
2021/11/08 14:13:33;;;;;;;28.13;25.83;;;11.30;70.50;;;;;;5047404;28;20475;-72